Hg 306 Tobis — OUPS — position and weather

sailwx.info

Track history (hours):
 
Tides and Currents Weather Stations Pressure Air Temp Water Temp Dewpoint Dewpoint Depression Visibility Wind Speed Wind Dir Waves Ship Positions

Hg 306 Tobis

Last reported at 2015-Jan-31 09:33 UTC. Time now 2015-Jan-31 10:06 UTC.
Position N 55°28' E 014°49'.

Length 40 m; draft 6.5 m.

Type: Fishing. MMSI: 219013001.

Date/timePositionNaut miles runAvg speedWind from/ knotsBaromVisibWave heightAir tempDewpointWater temp
2015-Jan-31 09:33N 55°28' E 014°49'4 3.9
2015-Jan-31 08:32N 55°28' E 014°42'4 3.8
2015-Jan-31 07:33N 55°26' E 014°36'3 3.3
2015-Jan-31 06:33N 55°28' E 014°41'3 3.3
2015-Jan-31 05:33N 55°28' E 014°47'3 2.7
2015-Jan-31 04:33N 55°28' E 014°51'0 0.2
2015-Jan-31 03:33N 55°28' E 014°51'4 3.4
2015-Jan-31 02:31N 55°28' E 014°58'3 3.3
2015-Jan-31 01:33N 55°27' E 015°03'3 3.3
2015-Jan-31 00:33N 55°25' E 015°08'3 3.3
2015-Jan-30 23:33N 55°23' E 015°12'4 3.5
2015-Jan-30 22:34N 55°20' E 015°16'2 2.3
2015-Jan-30 21:33N 55°22' E 015°13'4 4.0
2015-Jan-30 20:33N 55°24' E 015°07'4 3.8
2015-Jan-30 19:33N 55°26' E 015°02'3 3.2
2015-Jan-30 18:33N 55°24' E 015°06'3 3.3
2015-Jan-30 17:33N 55°22' E 015°11'4 3.9
2015-Jan-30 16:33N 55°21' E 015°17'3 3.4
2015-Jan-30 15:33N 55°23' E 015°13'4 3.8
2015-Jan-30 14:32N 55°25' E 015°07'4 3.9
2015-Jan-30 13:33N 55°27' E 015°02'4 3.8
2015-Jan-30 12:33N 55°28' E 014°55'4 3.8
2015-Jan-30 11:33N 55°28' E 014°49'1 0.6
2015-Jan-30 10:33N 55°28' E 014°48'4 3.6
2015-Jan-30 09:33N 55°27' E 014°54'3 3.4
2015-Jan-30 08:33N 55°27' E 015°00'3 3.4
2015-Jan-30 07:33N 55°25' E 015°05'3 3.5
2015-Jan-30 06:33N 55°23' E 015°10'3 3.5
2015-Jan-30 05:33N 55°21' E 015°15'9 8.6
2015-Jan-30 04:33N 55°14' E 015°25'3 2.8
2015-Jan-30 03:33N 55°15' E 015°20'4 3.9
2015-Jan-30 02:33N 55°18' E 015°15'5 5.2
2015-Jan-30 01:33N 55°22' E 015°11'4 3.8
2015-Jan-30 00:33N 55°22' E 015°04'4 3.6
2015-Jan-29 23:33N 55°21' E 014°58'4 3.7
2015-Jan-29 22:34N 55°22' E 014°52'9 3.5
2015-Jan-29 20:08N 55°26' E 014°38'2 2.8
2015-Jan-29 19:33N 55°25' E 014°41'4 3.6
2015-Jan-29 18:33N 55°23' E 014°46'3 3.5
2015-Jan-29 17:33N 55°21' E 014°51'3 3.4
2015-Jan-29 16:33N 55°20' E 014°57'3 3.4
2015-Jan-29 15:33N 55°21' E 015°03'3 3.2
2015-Jan-29 14:33N 55°23' E 015°08'2 2.0
2015-Jan-29 13:33N 55°24' E 015°10'3 3.4
2015-Jan-29 12:33N 55°26' E 015°05'3 3.5
2015-Jan-29 11:33N 55°28' E 014°60'4 3.5
2015-Jan-29 10:33N 55°28' E 014°54'4 3.7
2015-Jan-29 09:32N 55°29' E 014°47'4 4.0
2015-Jan-29 08:27N 55°28' E 014°40'2 1.9
2015-Jan-29 07:33N 55°27' E 014°37'3 3.4
2015-Jan-29 06:33N 55°24' E 014°42'3 3.2
2015-Jan-29 05:33N 55°23' E 014°47'3 3.2
2015-Jan-29 04:33N 55°21' E 014°51'3 3.0
2015-Jan-29 03:33N 55°20' E 014°57'3 3.1
2015-Jan-29 02:33N 55°21' E 015°02'2 2.4
2015-Jan-29 01:33N 55°23' E 015°05'3 3.3
2015-Jan-29 00:33N 55°26' E 015°06'4 3.6
2015-Jan-28 23:33N 55°28' E 014°60'4 3.5
2015-Jan-28 22:33N 55°28' E 014°54'4 3.7
2015-Jan-28 21:33N 55°28' E 014°47'4 3.9
2015-Jan-28 20:25N 55°28' E 014°40'2 2.4
2015-Jan-28 19:33N 55°27' E 014°36'3 3.4
2015-Jan-28 18:33N 55°25' E 014°41'3 3.5
2015-Jan-28 17:33N 55°23' E 014°46'3 3.4
2015-Jan-28 16:33N 55°21' E 014°51'3 3.3
2015-Jan-28 15:33N 55°20' E 014°57'3 3.2
2015-Jan-28 14:33N 55°21' E 015°02'3 3.3
2015-Jan-28 13:31N 55°23' E 015°07'2 2.1
2015-Jan-28 12:33N 55°25' E 015°10'3 3.3
2015-Jan-28 11:33N 55°26' E 015°05'4 3.8
2015-Jan-28 10:33N 55°28' E 014°59'4 3.8
2015-Jan-28 09:33N 55°28' E 014°52'4 4.1
2015-Jan-28 08:30N 55°28' E 014°45'4 3.9
2015-Jan-28 07:26N 55°27' E 014°38'7 8.2
2015-Jan-28 06:33N 55°20' E 014°38'1010.3
2015-Jan-28 05:33N 55°09' E 014°39'1010.0
2015-Jan-28 04:34N 54°59' E 014°39'2010.0
2015-Jan-28 02:33N 54°39' E 014°39'14 9.9
2015-Jan-28 01:09N 54°25' E 014°39'9 9.9
2015-Jan-28 00:11N 54°16' E 014°35'610.1
2015-Jan-27 23:33N 54°11' E 014°30'10 9.7
2015-Jan-27 22:33N 54°04' E 014°18'9 8.9
2015-Jan-27 21:34N 53°55' E 014°17'1 1.4
2015-Jan-27 20:33N 53°54' E 014°16'0 0.0
2015-Jan-27 19:34N 53°54' E 014°16'0 0.0
2015-Jan-27 18:33N 53°54' E 014°16'0 0.0
2015-Jan-27 17:34N 53°54' E 014°16'0 0.0
2015-Jan-27 16:33N 53°54' E 014°16'0 0.0
2015-Jan-27 15:34N 53°54' E 014°16'0 0.0
2015-Jan-27 14:33N 53°54' E 014°16'6 5.8
2015-Jan-27 13:33N 53°60' E 014°17'5110.2
2015-Jan-27 08:32N 54°45' E 014°58'10 9.9
2015-Jan-27 07:33N 54°54' E 015°05'1010.1
2015-Jan-27 06:31N 55°04' E 015°11'1010.0
2015-Jan-27 05:33N 55°13' E 015°05'8 8.4
2015-Jan-27 04:33N 55°20' E 014°57'4 3.5
2015-Jan-27 03:33N 55°22' E 014°52'4 3.8
2015-Jan-27 02:32N 55°24' E 014°46'3 3.2
2015-Jan-27 01:33N 55°26' E 014°42'3 3.5
2015-Jan-27 00:33N 55°23' E 014°46'3 3.5
2015-Jan-26 23:33N 55°22' E 014°52'4 3.7
2015-Jan-26 22:33N 55°21' E 014°58'2 2.4
2015-Jan-26 21:33N 55°21' E 015°02'2 2.0
2015-Jan-26 20:33N 55°19' E 015°01'4 3.7
2015-Jan-26 19:33N 55°21' E 014°56'4 3.9
2015-Jan-26 18:33N 55°23' E 014°51'8 3.4
2015-Jan-26 16:17N 55°28' E 014°40'2 2.5
2015-Jan-26 15:33N 55°29' E 014°43'3 3.1
2015-Jan-26 14:33N 55°29' E 014°49'3 3.2
2015-Jan-26 13:33N 55°28' E 014°54'3 3.2
2015-Jan-26 12:33N 55°28' E 015°00'3 3.3
2015-Jan-26 11:33N 55°27' E 015°05'4 3.7
2015-Jan-26 10:33N 55°24' E 015°10'3 2.9
2015-Jan-26 09:28N 55°26' E 015°06'4 4.0
2015-Jan-26 08:32N 55°28' E 014°60'4 4.0
2015-Jan-26 07:33N 55°28' E 014°53'5 3.9
2015-Jan-26 06:16N 55°28' E 014°44'3 3.9
2015-Jan-26 05:32N 55°28' E 014°39'4 3.6
2015-Jan-26 04:33N 55°24' E 014°42'3 2.8
2015-Jan-26 03:29N 55°23' E 014°47'3 3.5
2015-Jan-26 02:33N 55°22' E 014°52'3 2.6
2015-Jan-26 01:33N 55°25' E 014°52'4 3.5
2015-Jan-26 00:28N 55°27' E 014°47'4 3.7
2015-Jan-25 23:26N 55°28' E 014°41'2 2.6
2015-Jan-25 22:30N 55°26' E 014°38'3 3.3
2015-Jan-25 21:30N 55°24' E 014°42'4 3.7
2015-Jan-25 20:29N 55°22' E 014°48'3 3.7
2015-Jan-25 19:33N 55°20' E 014°53'4 3.7
2015-Jan-25 18:33N 55°21' E 014°60'3 3.5
2015-Jan-25 17:33N 55°23' E 015°04'4 4.1
2015-Jan-25 16:33N 55°27' E 015°05'3 3.0
2015-Jan-25 15:33N 55°28' E 014°59'4 4.2
2015-Jan-25 14:31N 55°28' E 014°52'4 3.9
2015-Jan-25 13:33N 55°28' E 014°45'2 2.4
2015-Jan-25 12:33N 55°28' E 014°49'4 3.4
2015-Jan-25 11:30N 55°28' E 014°56'3 3.5
2015-Jan-25 10:33N 55°27' E 015°01'0 0.0
2015-Jan-25 09:32N 55°27' E 015°01'4 4.0
2015-Jan-25 08:33N 55°28' E 014°55'4 4.0
2015-Jan-25 07:29N 55°28' E 014°47'0 0.3
2015-Jan-25 06:33N 55°28' E 014°47'4 3.6
2015-Jan-25 05:33N 55°28' E 014°54'4 3.6
2015-Jan-25 04:33N 55°27' E 014°60'5 4.7
2015-Jan-25 03:33N 55°32' E 015°03'4 3.6
2015-Jan-25 02:32N 55°30' E 015°08'4 3.7
2015-Jan-25 01:33N 55°28' E 015°13'4 3.5
2015-Jan-25 00:33N 55°24' E 015°16'4 3.6
2015-Jan-24 23:33N 55°21' E 015°16'1 1.1
2015-Jan-24 22:33N 55°20' E 015°16'4 4.0
2015-Jan-24 21:33N 55°23' E 015°12'4 3.9
2015-Jan-24 20:33N 55°25' E 015°07'4 4.0
2015-Jan-24 19:33N 55°27' E 015°01'4 4.0
2015-Jan-24 18:33N 55°28' E 014°54'4 3.9
2015-Jan-24 17:33N 55°28' E 014°47'1 0.8
2015-Jan-24 16:33N 55°29' E 014°48'3 3.3
2015-Jan-24 15:33N 55°28' E 014°54'3 3.3
2015-Jan-24 14:33N 55°28' E 014°60'3 3.3
2015-Jan-24 13:33N 55°27' E 015°05'3 3.1
2015-Jan-24 12:33N 55°25' E 015°09'3 3.4
2015-Jan-24 11:33N 55°22' E 015°13'3 3.2
2015-Jan-24 10:34N 55°22' E 015°07'4 3.7
2015-Jan-24 09:33N 55°21' E 015°01'4 3.8
2015-Jan-24 08:33N 55°21' E 014°54'7 3.6
2015-Jan-24 06:33N 55°24' E 014°43'4 3.5
2015-Jan-24 05:26N 55°27' E 014°39'2 2.8
2015-Jan-24 04:33N 55°27' E 014°43'3 3.3
2015-Jan-24 03:33N 55°27' E 014°49'3 3.3
2015-Jan-24 02:33N 55°24' E 014°51'4 2.9
2015-Jan-24 01:10N 55°23' E 014°44'3 3.4
2015-Jan-24 00:24N 55°25' E 014°41'3 3.8
2015-Jan-23 23:33N 55°28' E 014°38'3 3.4
2015-Jan-23 22:33N 55°25' E 014°42'4 3.8
2015-Jan-23 21:33N 55°23' E 014°48'3 2.9
2015-Jan-23 20:33N 55°24' E 014°53'4 3.7
2015-Jan-23 19:33N 55°27' E 014°49'4 3.9
2015-Jan-23 18:30N 55°28' E 014°42'2 2.0
2015-Jan-23 17:33N 55°27' E 014°39'4 3.6
2015-Jan-23 16:34N 55°24' E 014°44'4 3.9
2015-Jan-23 15:33N 55°22' E 014°50'3 2.8
2015-Jan-23 14:33N 55°25' E 014°52'4 3.7
2015-Jan-23 13:33N 55°27' E 014°47'4 3.9
2015-Jan-23 12:31N 55°27' E 014°40'1 0.9
2015-Jan-23 11:33N 55°27' E 014°39'4 3.6
2015-Jan-23 10:33N 55°24' E 014°43'4 3.9
2015-Jan-23 09:33N 55°22' E 014°49'4 3.7
2015-Jan-23 08:33N 55°20' E 014°55'4 3.8
2015-Jan-23 07:33N 55°21' E 015°01'4 3.8
2015-Jan-23 06:33N 55°23' E 015°07'3 2.5
2015-Jan-23 05:30N 55°26' E 015°06'4 4.0
2015-Jan-23 04:33N 55°28' E 015°00'4 3.9
2015-Jan-23 03:33N 55°28' E 014°53'4 4.1
2015-Jan-23 02:33N 55°28' E 014°46'4 3.8
2015-Jan-23 01:33N 55°28' E 014°39'4 3.8
2015-Jan-23 00:33N 55°25' E 014°35'10 9.7
2015-Jan-22 23:34N 55°17' E 014°26'10 9.8
2015-Jan-22 22:33N 55°10' E 014°13'1110.2
2015-Jan-22 21:32N 55°11' E 013°55'2010.1
2015-Jan-22 19:34N 55°12' E 013°20'1010.1
2015-Jan-22 18:34N 55°13' E 013°02'1010.1
2015-Jan-22 17:33N 55°16' E 012°45'8 8.3
2015-Jan-22 16:33N 55°24' E 012°39'9 9.5
2015-Jan-22 15:34N 55°33' E 012°42'9 8.8
2015-Jan-22 14:33N 55°42' E 012°41'9 8.9
2015-Jan-22 13:33N 55°51' E 012°41'9 9.2
2015-Jan-22 12:33N 55°60' E 012°40'8 7.8
2015-Jan-22 11:33N 56°06' E 012°32'8 7.6
2015-Jan-22 10:33N 56°12' E 012°24'9 9.3
2015-Jan-22 09:34N 56°20' E 012°15'1010.2
2015-Jan-22 08:33N 56°29' E 012°06'1010.4
2015-Jan-22 07:33N 56°38' E 011°58'1010.3
2015-Jan-22 06:33N 56°48' E 011°50'1010.0
2015-Jan-22 05:33N 56°57' E 011°44'1010.1
2015-Jan-22 04:33N 57°07' E 011°38'10 9.9
2015-Jan-22 03:34N 57°16' E 011°32'10 9.8
2015-Jan-22 02:33N 57°25' E 011°25'10 9.6
2015-Jan-22 01:33N 57°33' E 011°14'10 9.7
2015-Jan-22 00:33N 57°39' E 011°01'1010.1
2015-Jan-21 23:31N 57°46' E 010°46'  
Track history (hours):
 
Tides and Currents Weather Stations Pressure Air Temp Water Temp Dewpoint Dewpoint Depression Visibility Wind Speed Wind Dir Waves Ship Positions

Hg 306 Tobis

Last reported at 2015-Jan-31 09:33 UTC. Time now 2015-Jan-31 10:06 UTC.
Position N 55°28' E 014°49'.

Length 40 m; draft 6.5 m.

Type: Fishing. MMSI: 219013001.

Date/timePositionNaut miles runAvg speedWind from/ knotsBaromVisibWave heightAir tempDewpointWater temp
2015-Jan-31 09:33N 55°28' E 014°49'4 3.9
2015-Jan-31 08:32N 55°28' E 014°42'4 3.8
2015-Jan-31 07:33N 55°26' E 014°36'3 3.3
2015-Jan-31 06:33N 55°28' E 014°41'3 3.3
2015-Jan-31 05:33N 55°28' E 014°47'3 2.7
2015-Jan-31 04:33N 55°28' E 014°51'0 0.2
2015-Jan-31 03:33N 55°28' E 014°51'4 3.4
2015-Jan-31 02:31N 55°28' E 014°58'3 3.3
2015-Jan-31 01:33N 55°27' E 015°03'3 3.3
2015-Jan-31 00:33N 55°25' E 015°08'3 3.3
2015-Jan-30 23:33N 55°23' E 015°12'4 3.5
2015-Jan-30 22:34N 55°20' E 015°16'2 2.3
2015-Jan-30 21:33N 55°22' E 015°13'4 4.0
2015-Jan-30 20:33N 55°24' E 015°07'4 3.8
2015-Jan-30 19:33N 55°26' E 015°02'3 3.2
2015-Jan-30 18:33N 55°24' E 015°06'3 3.3
2015-Jan-30 17:33N 55°22' E 015°11'4 3.9
2015-Jan-30 16:33N 55°21' E 015°17'3 3.4
2015-Jan-30 15:33N 55°23' E 015°13'4 3.8
2015-Jan-30 14:32N 55°25' E 015°07'4 3.9
2015-Jan-30 13:33N 55°27' E 015°02'4 3.8
2015-Jan-30 12:33N 55°28' E 014°55'4 3.8
2015-Jan-30 11:33N 55°28' E 014°49'1 0.6
2015-Jan-30 10:33N 55°28' E 014°48'4 3.6
2015-Jan-30 09:33N 55°27' E 014°54'3 3.4
2015-Jan-30 08:33N 55°27' E 015°00'3 3.4
2015-Jan-30 07:33N 55°25' E 015°05'3 3.5
2015-Jan-30 06:33N 55°23' E 015°10'3 3.5
2015-Jan-30 05:33N 55°21' E 015°15'9 8.6
2015-Jan-30 04:33N 55°14' E 015°25'3 2.8
2015-Jan-30 03:33N 55°15' E 015°20'4 3.9
2015-Jan-30 02:33N 55°18' E 015°15'5 5.2
2015-Jan-30 01:33N 55°22' E 015°11'4 3.8
2015-Jan-30 00:33N 55°22' E 015°04'4 3.6
2015-Jan-29 23:33N 55°21' E 014°58'4 3.7
2015-Jan-29 22:34N 55°22' E 014°52'9 3.5
2015-Jan-29 20:08N 55°26' E 014°38'2 2.8
2015-Jan-29 19:33N 55°25' E 014°41'4 3.6
2015-Jan-29 18:33N 55°23' E 014°46'3 3.5
2015-Jan-29 17:33N 55°21' E 014°51'3 3.4
2015-Jan-29 16:33N 55°20' E 014°57'3 3.4
2015-Jan-29 15:33N 55°21' E 015°03'3 3.2
2015-Jan-29 14:33N 55°23' E 015°08'2 2.0
2015-Jan-29 13:33N 55°24' E 015°10'3 3.4
2015-Jan-29 12:33N 55°26' E 015°05'3 3.5
2015-Jan-29 11:33N 55°28' E 014°60'4 3.5
2015-Jan-29 10:33N 55°28' E 014°54'4 3.7
2015-Jan-29 09:32N 55°29' E 014°47'4 4.0
2015-Jan-29 08:27N 55°28' E 014°40'2 1.9
2015-Jan-29 07:33N 55°27' E 014°37'3 3.4
2015-Jan-29 06:33N 55°24' E 014°42'3 3.2
2015-Jan-29 05:33N 55°23' E 014°47'3 3.2
2015-Jan-29 04:33N 55°21' E 014°51'3 3.0
2015-Jan-29 03:33N 55°20' E 014°57'3 3.1
2015-Jan-29 02:33N 55°21' E 015°02'2 2.4
2015-Jan-29 01:33N 55°23' E 015°05'3 3.3
2015-Jan-29 00:33N 55°26' E 015°06'4 3.6
2015-Jan-28 23:33N 55°28' E 014°60'4 3.5
2015-Jan-28 22:33N 55°28' E 014°54'4 3.7
2015-Jan-28 21:33N 55°28' E 014°47'4 3.9
2015-Jan-28 20:25N 55°28' E 014°40'2 2.4
2015-Jan-28 19:33N 55°27' E 014°36'3 3.4
2015-Jan-28 18:33N 55°25' E 014°41'3 3.5
2015-Jan-28 17:33N 55°23' E 014°46'3 3.4
2015-Jan-28 16:33N 55°21' E 014°51'3 3.3
2015-Jan-28 15:33N 55°20' E 014°57'3 3.2
2015-Jan-28 14:33N 55°21' E 015°02'3 3.3
2015-Jan-28 13:31N 55°23' E 015°07'2 2.1
2015-Jan-28 12:33N 55°25' E 015°10'3 3.3
2015-Jan-28 11:33N 55°26' E 015°05'4 3.8
2015-Jan-28 10:33N 55°28' E 014°59'4 3.8
2015-Jan-28 09:33N 55°28' E 014°52'4 4.1
2015-Jan-28 08:30N 55°28' E 014°45'4 3.9
2015-Jan-28 07:26N 55°27' E 014°38'7 8.2
2015-Jan-28 06:33N 55°20' E 014°38'1010.3
2015-Jan-28 05:33N 55°09' E 014°39'1010.0
2015-Jan-28 04:34N 54°59' E 014°39'2010.0
2015-Jan-28 02:33N 54°39' E 014°39'14 9.9
2015-Jan-28 01:09N 54°25' E 014°39'9 9.9
2015-Jan-28 00:11N 54°16' E 014°35'610.1
2015-Jan-27 23:33N 54°11' E 014°30'10 9.7
2015-Jan-27 22:33N 54°04' E 014°18'9 8.9
2015-Jan-27 21:34N 53°55' E 014°17'1 1.4
2015-Jan-27 20:33N 53°54' E 014°16'0 0.0
2015-Jan-27 19:34N 53°54' E 014°16'0 0.0
2015-Jan-27 18:33N 53°54' E 014°16'0 0.0
2015-Jan-27 17:34N 53°54' E 014°16'0 0.0
2015-Jan-27 16:33N 53°54' E 014°16'0 0.0
2015-Jan-27 15:34N 53°54' E 014°16'0 0.0
2015-Jan-27 14:33N 53°54' E 014°16'6 5.8
2015-Jan-27 13:33N 53°60' E 014°17'5110.2
2015-Jan-27 08:32N 54°45' E 014°58'10 9.9
2015-Jan-27 07:33N 54°54' E 015°05'1010.1
2015-Jan-27 06:31N 55°04' E 015°11'1010.0
2015-Jan-27 05:33N 55°13' E 015°05'8 8.4
2015-Jan-27 04:33N 55°20' E 014°57'4 3.5
2015-Jan-27 03:33N 55°22' E 014°52'4 3.8
2015-Jan-27 02:32N 55°24' E 014°46'3 3.2
2015-Jan-27 01:33N 55°26' E 014°42'3 3.5
2015-Jan-27 00:33N 55°23' E 014°46'3 3.5
2015-Jan-26 23:33N 55°22' E 014°52'4 3.7
2015-Jan-26 22:33N 55°21' E 014°58'2 2.4
2015-Jan-26 21:33N 55°21' E 015°02'2 2.0
2015-Jan-26 20:33N 55°19' E 015°01'4 3.7
2015-Jan-26 19:33N 55°21' E 014°56'4 3.9
2015-Jan-26 18:33N 55°23' E 014°51'8 3.4
2015-Jan-26 16:17N 55°28' E 014°40'2 2.5
2015-Jan-26 15:33N 55°29' E 014°43'3 3.1
2015-Jan-26 14:33N 55°29' E 014°49'3 3.2
2015-Jan-26 13:33N 55°28' E 014°54'3 3.2
2015-Jan-26 12:33N 55°28' E 015°00'3 3.3
2015-Jan-26 11:33N 55°27' E 015°05'4 3.7
2015-Jan-26 10:33N 55°24' E 015°10'3 2.9
2015-Jan-26 09:28N 55°26' E 015°06'4 4.0
2015-Jan-26 08:32N 55°28' E 014°60'4 4.0
2015-Jan-26 07:33N 55°28' E 014°53'5 3.9
2015-Jan-26 06:16N 55°28' E 014°44'3 3.9
2015-Jan-26 05:32N 55°28' E 014°39'4 3.6
2015-Jan-26 04:33N 55°24' E 014°42'3 2.8
2015-Jan-26 03:29N 55°23' E 014°47'3 3.5
2015-Jan-26 02:33N 55°22' E 014°52'3 2.6
2015-Jan-26 01:33N 55°25' E 014°52'4 3.5
2015-Jan-26 00:28N 55°27' E 014°47'4 3.7
2015-Jan-25 23:26N 55°28' E 014°41'2 2.6
2015-Jan-25 22:30N 55°26' E 014°38'3 3.3
2015-Jan-25 21:30N 55°24' E 014°42'4 3.7
2015-Jan-25 20:29N 55°22' E 014°48'3 3.7
2015-Jan-25 19:33N 55°20' E 014°53'4 3.7
2015-Jan-25 18:33N 55°21' E 014°60'3 3.5
2015-Jan-25 17:33N 55°23' E 015°04'4 4.1
2015-Jan-25 16:33N 55°27' E 015°05'3 3.0
2015-Jan-25 15:33N 55°28' E 014°59'4 4.2
2015-Jan-25 14:31N 55°28' E 014°52'4 3.9
2015-Jan-25 13:33N 55°28' E 014°45'2 2.4
2015-Jan-25 12:33N 55°28' E 014°49'4 3.4
2015-Jan-25 11:30N 55°28' E 014°56'3 3.5
2015-Jan-25 10:33N 55°27' E 015°01'0 0.0
2015-Jan-25 09:32N 55°27' E 015°01'4 4.0
2015-Jan-25 08:33N 55°28' E 014°55'4 4.0
2015-Jan-25 07:29N 55°28' E 014°47'0 0.3
2015-Jan-25 06:33N 55°28' E 014°47'4 3.6
2015-Jan-25 05:33N 55°28' E 014°54'4 3.6
2015-Jan-25 04:33N 55°27' E 014°60'5 4.7
2015-Jan-25 03:33N 55°32' E 015°03'4 3.6
2015-Jan-25 02:32N 55°30' E 015°08'4 3.7
2015-Jan-25 01:33N 55°28' E 015°13'4 3.5
2015-Jan-25 00:33N 55°24' E 015°16'4 3.6
2015-Jan-24 23:33N 55°21' E 015°16'1 1.1
2015-Jan-24 22:33N 55°20' E 015°16'4 4.0
2015-Jan-24 21:33N 55°23' E 015°12'4 3.9
2015-Jan-24 20:33N 55°25' E 015°07'4 4.0
2015-Jan-24 19:33N 55°27' E 015°01'4 4.0
2015-Jan-24 18:33N 55°28' E 014°54'4 3.9
2015-Jan-24 17:33N 55°28' E 014°47'1 0.8
2015-Jan-24 16:33N 55°29' E 014°48'3 3.3
2015-Jan-24 15:33N 55°28' E 014°54'3 3.3
2015-Jan-24 14:33N 55°28' E 014°60'3 3.3
2015-Jan-24 13:33N 55°27' E 015°05'3 3.1
2015-Jan-24 12:33N 55°25' E 015°09'3 3.4
2015-Jan-24 11:33N 55°22' E 015°13'3 3.2
2015-Jan-24 10:34N 55°22' E 015°07'4 3.7
2015-Jan-24 09:33N 55°21' E 015°01'4 3.8
2015-Jan-24 08:33N 55°21' E 014°54'7 3.6
2015-Jan-24 06:33N 55°24' E 014°43'4 3.5
2015-Jan-24 05:26N 55°27' E 014°39'2 2.8
2015-Jan-24 04:33N 55°27' E 014°43'3 3.3
2015-Jan-24 03:33N 55°27' E 014°49'3 3.3
2015-Jan-24 02:33N 55°24' E 014°51'4 2.9
2015-Jan-24 01:10N 55°23' E 014°44'3 3.4
2015-Jan-24 00:24N 55°25' E 014°41'3 3.8
2015-Jan-23 23:33N 55°28' E 014°38'3 3.4
2015-Jan-23 22:33N 55°25' E 014°42'4 3.8
2015-Jan-23 21:33N 55°23' E 014°48'3 2.9
2015-Jan-23 20:33N 55°24' E 014°53'4 3.7
2015-Jan-23 19:33N 55°27' E 014°49'4 3.9
2015-Jan-23 18:30N 55°28' E 014°42'2 2.0
2015-Jan-23 17:33N 55°27' E 014°39'4 3.6
2015-Jan-23 16:34N 55°24' E 014°44'4 3.9
2015-Jan-23 15:33N 55°22' E 014°50'3 2.8
2015-Jan-23 14:33N 55°25' E 014°52'4 3.7
2015-Jan-23 13:33N 55°27' E 014°47'4 3.9
2015-Jan-23 12:31N 55°27' E 014°40'1 0.9
2015-Jan-23 11:33N 55°27' E 014°39'4 3.6
2015-Jan-23 10:33N 55°24' E 014°43'4 3.9
2015-Jan-23 09:33N 55°22' E 014°49'4 3.7
2015-Jan-23 08:33N 55°20' E 014°55'4 3.8
2015-Jan-23 07:33N 55°21' E 015°01'4 3.8
2015-Jan-23 06:33N 55°23' E 015°07'3 2.5
2015-Jan-23 05:30N 55°26' E 015°06'4 4.0
2015-Jan-23 04:33N 55°28' E 015°00'4 3.9
2015-Jan-23 03:33N 55°28' E 014°53'4 4.1
2015-Jan-23 02:33N 55°28' E 014°46'4 3.8
2015-Jan-23 01:33N 55°28' E 014°39'4 3.8
2015-Jan-23 00:33N 55°25' E 014°35'10 9.7
2015-Jan-22 23:34N 55°17' E 014°26'10 9.8
2015-Jan-22 22:33N 55°10' E 014°13'1110.2
2015-Jan-22 21:32N 55°11' E 013°55'2010.1
2015-Jan-22 19:34N 55°12' E 013°20'1010.1
2015-Jan-22 18:34N 55°13' E 013°02'1010.1
2015-Jan-22 17:33N 55°16' E 012°45'8 8.3
2015-Jan-22 16:33N 55°24' E 012°39'9 9.5
2015-Jan-22 15:34N 55°33' E 012°42'9 8.8
2015-Jan-22 14:33N 55°42' E 012°41'9 8.9
2015-Jan-22 13:33N 55°51' E 012°41'9 9.2
2015-Jan-22 12:33N 55°60' E 012°40'8 7.8
2015-Jan-22 11:33N 56°06' E 012°32'8 7.6
2015-Jan-22 10:33N 56°12' E 012°24'9 9.3
2015-Jan-22 09:34N 56°20' E 012°15'1010.2
2015-Jan-22 08:33N 56°29' E 012°06'1010.4
2015-Jan-22 07:33N 56°38' E 011°58'1010.3
2015-Jan-22 06:33N 56°48' E 011°50'1010.0
2015-Jan-22 05:33N 56°57' E 011°44'1010.1
2015-Jan-22 04:33N 57°07' E 011°38'10 9.9
2015-Jan-22 03:34N 57°16' E 011°32'10 9.8
2015-Jan-22 02:33N 57°25' E 011°25'10 9.6
2015-Jan-22 01:33N 57°33' E 011°14'10 9.7
2015-Jan-22 00:33N 57°39' E 011°01'1010.1
2015-Jan-21 23:31N 57°46' E 010°46'  

Dump ship's entire track history